Terminal Aerodrome Forecast
Issued by NWS Blacksburg, VA

Current Version | Previous Version | Text Only | Print | Product List | Glossary Off
Versions: 1 2 3 4 5 6 7 8 9 10 11 12 13 14 15 16 17 18 19 20 21 22 23 24 25 26 27 28 29 30 31 32 33 34 35 36 37 38 39 40 41 42

000
FTUS41 KRNK 281721
TAFBLF
TAF
KBLF 281721Z 2818/0118 15009KT P6SM SCT015 OVC060
     FM282100 20004KT P6SM OVC025
     FM010100 14006KT P6SM SCT012 BKN050
     FM010900 15006KT P6SM BKN009 OVC025
     FM011200 21006KT 1 1/2SM -FZRA BR OVC004=

USA.gov is the U.S. government's official web portal to all federal, state and local government web resources and services.